Time;durP1;ratioP1;P1;durP2;ratioP2;P2;SDS_P1;SDS_P2;PMS_P1;PMS_P2;Temp;Humidity;BMP_temperature;BMP_pressure;BME280_temperature;BME280_humidity;BME280_pressure;Samples;Min_cycle;Max_cycle;Signal;HPM_P1;HPM_P2
2022/10/15 00:00:27;;;;;;;5.18;3.55;;;;;;;19.39;55.93;100673.97;5061340;28;20073;-62
2022/10/15 00:02:53;;;;;;;5.60;3.40;;;;;;;19.39;55.95;100673.97;5061708;28;20068;-61
2022/10/15 00:05:19;;;;;;;6.10;3.75;;;;;;;19.46;55.95;100687.47;5061891;28;20032;-66
2022/10/15 00:07:44;;;;;;;5.22;3.65;;;;;;;19.44;56.10;100684.13;5061597;28;20039;-65
2022/10/15 00:10:09;;;;;;;5.10;3.30;;;;;;;19.38;55.81;100679.41;5061493;28;20029;-64
2022/10/15 00:12:34;;;;;;;5.65;3.75;;;;;;;19.42;56.07;100679.94;5061438;28;20273;-63
2022/10/15 00:15:00;;;;;;;6.95;3.90;;;;;;;19.43;55.98;100689.56;5061609;28;20372;-63
2022/10/15 00:17:25;;;;;;;5.90;3.45;;;;;;;19.39;55.68;100679.25;5061395;28;20054;-64
2022/10/15 00:19:50;;;;;;;6.50;3.80;;;;;;;19.31;55.66;100668.53;5061338;28;20033;-65
2022/10/15 00:22:15;;;;;;;5.57;3.88;;;;;;;19.30;55.77;100666.03;5061546;28;20261;-64
2022/10/15 00:24:41;;;;;;;4.83;3.43;;;;;;;19.38;56.01;100688.16;5061586;28;20037;-64
2022/10/15 00:27:06;;;;;;;4.93;3.22;;;;;;;19.38;55.56;100693.44;5061280;28;20303;-64
2022/10/15 00:29:31;;;;;;;5.30;3.42;;;;;;;19.37;55.82;100683.81;5061328;28;20024;-65
2022/10/15 00:31:57;;;;;;;5.77;3.60;;;;;;;19.37;55.75;100685.63;5061141;28;20162;-64
2022/10/15 00:34:22;;;;;;;6.22;4.13;;;;;;;19.29;55.48;100673.09;5060725;28;20265;-63
2022/10/15 00:36:49;;;;;;;6.13;3.53;;;;;;;19.27;55.68;100685.63;5061441;28;20109;-63
2022/10/15 00:39:15;;;;;;;4.53;2.92;;;;;;;19.31;55.39;100689.69;5061380;28;20253;-64
2022/10/15 00:41:42;;;;;;;6.57;3.78;;;;;;;19.26;55.63;100669.91;5060712;28;20040;-64
2022/10/15 00:44:27;;;;;;;5.18;3.47;;;;;;;19.34;55.50;100691.19;5061248;28;20043;-64
2022/10/15 00:46:55;;;;;;;6.72;3.60;;;;;;;19.34;55.62;100694.69;5061066;28;20045;-63
2022/10/15 00:49:24;;;;;;;5.75;3.78;;;;;;;19.31;55.62;100691.47;5059643;28;20554;-64
2022/10/15 00:51:55;;;;;;;6.70;4.03;;;;;;;19.26;55.51;100685.75;5061006;28;20415;-65
2022/10/15 00:54:21;;;;;;;5.18;3.28;;;;;;;19.24;55.59;100680.63;5061394;28;20028;-64
2022/10/15 00:56:49;;;;;;;6.13;3.58;;;;;;;19.31;55.64;100689.69;5060685;28;20962;-65
2022/10/15 00:59:17;;;;;;;5.47;3.50;;;;;;;19.28;55.60;100689.09;5060996;28;20093;-63
2022/10/15 01:01:43;;;;;;;6.43;3.60;;;;;;;19.27;55.55;100690.09;5061149;28;20060;-64
2022/10/15 01:04:10;;;;;;;6.63;4.32;;;;;;;19.30;55.53;100698.56;5060698;28;20032;-63
2022/10/15 01:06:36;;;;;;;6.07;3.78;;;;;;;19.24;55.75;100690.34;5060997;28;20040;-64
2022/10/15 01:09:01;;;;;;;6.28;4.20;;;;;;;19.23;55.39;100686.84;5060889;28;20074;-62
2022/10/15 01:11:39;;;;;;;5.30;3.78;;;;;;;19.29;55.45;100698.69;5060590;28;20067;-63
2022/10/15 01:14:46;;;;;;;5.32;3.40;;;;;;;19.24;55.43;100685.91;5061074;28;20022;-62
2022/10/15 01:17:21;;;;;;;7.05;4.15;;;;;;;19.28;55.40;100695.22;5018402;28;20452;-66
2022/10/15 01:20:07;;;;;;;5.55;3.92;;;;;;;19.28;55.67;100684.66;5055913;28;20044;-64
2022/10/15 01:22:54;;;;;;;6.85;4.03;;;;;;;19.28;55.58;100675.88;5060964;28;20373;-63
2022/10/15 01:25:49;;;;;;;5.00;3.60;;;;;;;19.19;55.49;100659.06;5060940;28;20377;-64
2022/10/15 01:28:34;;;;;;;6.57;3.60;;;;;;;19.26;55.51;100669.91;5060889;28;20031;-64
2022/10/15 01:31:16;;;;;;;6.00;3.95;;;;;;;19.19;55.33;100657.25;5060698;28;20044;-66
2022/10/15 01:33:53;;;;;;;4.90;3.45;;;;;;;19.25;55.63;100662.94;5060747;28;20081;-66
2022/10/15 01:36:30;;;;;;;5.65;3.80;;;;;;;19.26;55.51;100660.16;5060616;28;20044;-63
2022/10/15 01:39:18;;;;;;;6.03;3.88;;;;;;;19.18;55.70;100644.16;5060202;28;20033;-64
2022/10/15 01:41:50;;;;;;;6.03;3.83;;;;;;;19.19;55.79;100646.66;5060131;28;20503;-62
2022/10/15 01:44:22;;;;;;;5.40;3.58;;;;;;;19.20;55.60;100647.50;5060548;28;20457;-63
2022/10/15 01:47:02;;;;;;;5.13;3.55;;;;;;;19.18;55.37;100652.09;5062938;28;20484;-63
2022/10/15 01:49:33;;;;;;;4.90;3.40;;;;;;;19.19;55.49;100648.50;5063820;28;20066;-62
2022/10/15 01:52:03;;;;;;;5.40;3.83;;;;;;;19.21;55.66;100649.19;5064196;28;20074;-62
2022/10/15 01:54:29;;;;;;;4.72;3.40;;;;;;;19.20;55.51;100643.06;5064525;28;20110;-62
2022/10/15 01:56:57;;;;;;;5.07;3.33;;;;;;;19.20;55.63;100637.78;5064089;28;20426;-64
2022/10/15 01:59:26;;;;;;;4.97;3.65;;;;;;;19.18;55.53;100633.59;5063887;28;20119;-63
2022/10/15 02:01:52;;;;;;;5.25;3.17;;;;;;;19.20;55.47;100635.16;5064010;28;20031;-64
2022/10/15 02:04:21;;;;;;;4.75;3.30;;;;;;;19.20;55.76;100634.28;5063885;28;20028;-62
2022/10/15 02:06:51;;;;;;;7.03;4.13;;;;;;;19.17;55.56;100630.13;5063791;28;20890;-62
2022/10/15 02:09:34;;;;;;;4.95;3.38;;;;;;;19.23;55.73;100641.94;5063836;28;20101;-61
2022/10/15 02:12:14;;;;;;;6.30;3.60;;;;;;;19.20;55.41;100632.50;5063669;28;20491;-62
2022/10/15 02:14:49;;;;;;;5.82;3.50;;;;;;;19.19;55.46;100630.00;5064117;28;20024;-63
2022/10/15 02:17:20;;;;;;;5.03;3.50;;;;;;;19.15;55.59;100618.88;5063970;28;20032;-63
2022/10/15 02:19:53;;;;;;;6.05;4.13;;;;;;;19.20;55.48;100632.50;5064133;28;20111;-65
2022/10/15 02:22:38;;;;;;;5.80;3.53;;;;;;;19.23;55.58;100631.38;5063548;28;20443;-61
2022/10/15 02:25:05;;;;;;;;;;;;;;;19.20;55.53;100626.38;5063697;28;20261;-62
2022/10/15 02:27:32;;;;;;;6.43;3.55;;;;;;;19.20;55.47;100624.56;5063591;28;20344;-63
2022/10/15 02:30:05;;;;;;;4.60;3.28;;;;;;;19.17;55.48;100619.56;5063289;28;20077;-64
2022/10/15 02:32:31;;;;;;;5.03;3.30;;;;;;;19.23;55.75;100622.63;5063583;28;20040;-64
2022/10/15 02:34:58;;;;;;;6.03;3.60;;;;;;;19.18;55.69;100609.81;5063726;28;20472;-64
2022/10/15 02:37:26;;;;;;;5.30;3.55;;;;;;;19.14;55.59;100606.63;5062875;28;20464;-62
2022/10/15 02:39:52;;;;;;;5.95;3.22;;;;;;;19.17;55.48;100602.88;5063316;28;20040;-62
2022/10/15 02:42:17;;;;;;;5.13;3.70;;;;;;;19.21;55.37;100605.09;5063176;28;20044;-62
2022/10/15 02:44:43;;;;;;;5.95;3.28;;;;;;;19.21;55.67;100597.16;5063003;28;20033;-63
2022/10/15 02:47:10;;;;;;;5.80;3.90;;;;;;;19.15;55.44;100586.31;5063257;28;20056;-63
2022/10/15 02:49:35;;;;;;;5.32;3.35;;;;;;;19.20;55.77;100594.66;5062771;28;20021;-62
2022/10/15 02:52:00;;;;;;;4.88;3.20;;;;;;;19.13;55.57;100580.34;5062827;28;20042;-66
2022/10/15 02:54:25;;;;;;;4.70;3.10;;;;;;;19.10;55.67;100575.34;5063020;28;20809;-63
2022/10/15 02:56:51;;;;;;;6.80;3.47;;;;;;;19.15;55.70;100581.03;5062916;28;20661;-62
2022/10/15 02:59:18;;;;;;;4.87;3.27;;;;;;;19.16;55.54;100578.25;5062514;28;20297;-65
2022/10/15 03:01:43;;;;;;;5.60;3.67;;;;;;;19.14;55.58;100568.81;5062567;28;20301;-64
2022/10/15 03:04:09;;;;;;;5.07;3.40;;;;;;;19.18;55.70;100578.13;5062887;28;20055;-64
2022/10/15 03:06:34;;;;;;;6.97;3.40;;;;;;;19.19;55.52;100577.16;5062449;28;20445;-64
2022/10/15 03:08:59;;;;;;;6.10;3.72;;;;;;;19.18;55.61;100575.47;5062531;28;20311;-63
2022/10/15 03:11:25;;;;;;;4.60;2.90;;;;;;;19.16;55.70;100565.06;5062469;28;20028;-62
2022/10/15 03:13:50;;;;;;;4.75;3.05;;;;;;;19.12;55.54;100568.09;5062771;28;20036;-62
2022/10/15 03:16:15;;;;;;;5.50;3.45;;;;;;;19.12;55.61;100563.69;5062480;28;20761;-62
2022/10/15 03:18:40;;;;;;;6.00;3.30;;;;;;;19.11;55.55;100559.34;5062791;28;20033;-63
2022/10/15 03:21:06;;;;;;;5.10;3.07;;;;;;;19.12;55.61;100563.69;5061779;28;20035;-63
2022/10/15 03:23:31;;;;;;;5.73;3.20;;;;;;;19.12;55.62;100565.47;5062557;28;20597;-64
2022/10/15 03:25:56;;;;;;;4.63;3.00;;;;;;;19.16;55.78;100580.91;5062313;28;20498;-63
2022/10/15 03:28:22;;;;;;;5.18;3.40;;;;;;;19.10;55.61;100568.25;5062200;28;20032;-63
2022/10/15 03:30:47;;;;;;;5.78;3.53;;;;;;;19.08;55.76;100567.56;5062205;28;20115;-64
2022/10/15 03:33:13;;;;;;;5.50;3.33;;;;;;;19.17;55.75;100581.75;5062491;28;20032;-63
2022/10/15 03:35:39;;;;;;;5.45;3.25;;;;;;;19.15;55.60;100576.59;5061957;28;20024;-63
2022/10/15 03:38:04;;;;;;;5.63;3.10;;;;;;;19.10;55.88;100567.41;5062197;28;20035;-62
2022/10/15 03:40:30;;;;;;;5.03;3.13;;;;;;;19.16;55.76;100578.25;5062117;28;20048;-64
2022/10/15 03:42:55;;;;;;;4.68;3.15;;;;;;;19.15;55.67;100568.69;5062062;28;20514;-64
2022/10/15 03:45:21;;;;;;;4.30;2.90;;;;;;;19.13;55.60;100562.69;5062025;28;20547;-62
2022/10/15 03:47:46;;;;;;;5.28;3.80;;;;;;;19.09;55.55;100560.44;5061935;28;20305;-63
2022/10/15 03:50:12;;;;;;;5.00;3.40;;;;;;;19.15;55.50;100563.41;5061609;28;20042;-64
2022/10/15 03:52:38;;;;;;;4.93;3.10;;;;;;;19.15;55.71;100563.41;5061916;28;20028;-62
2022/10/15 03:55:04;;;;;;;5.40;3.17;;;;;;;19.11;55.55;100559.34;5061803;28;20142;-64
2022/10/15 03:57:29;;;;;;;6.55;3.50;;;;;;;19.01;55.58;100538.22;5061642;28;20464;-62
2022/10/15 03:59:55;;;;;;;4.57;2.87;;;;;;;19.15;55.90;100562.56;5061996;28;20028;-63
2022/10/15 04:02:20;;;;;;;5.13;3.03;;;;;;;19.08;55.40;100561.44;5061471;28;20276;-63
2022/10/15 04:04:46;;;;;;;4.80;3.20;;;;;;;19.13;55.33;100573.25;5061365;28;20070;-65
2022/10/15 04:07:11;;;;;;;5.43;3.30;;;;;;;19.03;55.61;100552.13;5061636;28;20029;-63
2022/10/15 04:09:36;;;;;;;4.28;2.88;;;;;;;19.06;55.69;100561.59;5061347;28;20476;-64
2022/10/15 04:12:02;;;;;;;6.78;3.35;;;;;;;19.06;55.69;100566.88;5061515;28;20531;-62
2022/10/15 04:14:27;;;;;;;5.32;3.25;;;;;;;19.06;55.52;100558.94;5061795;28;20032;-64
2022/10/15 04:16:54;;;;;;;5.05;2.95;;;;;;;19.11;55.76;100569.91;5061433;28;20032;-64
2022/10/15 04:19:20;;;;;;;5.57;3.22;;;;;;;18.94;55.81;100538.91;5061391;28;20078;-63
2022/10/15 04:21:45;;;;;;;5.32;3.03;;;;;;;19.06;55.46;100553.66;5061286;28;20056;-64
2022/10/15 04:24:10;;;;;;;5.20;3.30;;;;;;;19.05;55.87;100564.34;5061240;28;20043;-61
2022/10/15 04:26:36;;;;;;;4.73;3.10;;;;;;;19.05;55.92;100562.53;5061641;28;20620;-64
2022/10/15 04:29:01;;;;;;;6.57;3.20;;;;;;;19.06;55.69;100569.50;5061164;28;20826;-64
2022/10/15 04:31:26;;;;;;;6.13;3.57;;;;;;;19.12;55.69;100576.88;5061069;28;20039;-63
2022/10/15 04:33:51;;;;;;;5.95;3.30;;;;;;;19.11;55.73;100572.56;5061081;28;21117;-65
2022/10/15 04:36:17;;;;;;;8.67;3.50;;;;;;;19.05;55.81;100559.91;5061475;28;20089;-63
2022/10/15 04:38:42;;;;;;;5.15;3.38;;;;;;;19.06;55.91;100555.44;5061043;28;20269;-63
2022/10/15 04:41:09;;;;;;;5.22;3.67;;;;;;;19.11;55.88;100561.19;5060686;28;20421;-63
2022/10/15 04:43:35;;;;;;;5.28;3.60;;;;;;;19.07;55.86;100557.13;5061267;28;20078;-64
2022/10/15 04:46:04;;;;;;;4.70;3.40;;;;;;;19.02;55.73;100545.16;5061314;28;20029;-63
2022/10/15 04:48:31;;;;;;;6.20;3.75;;;;;;;19.10;55.96;100564.78;5060920;28;20083;-64
2022/10/15 04:51:24;;;;;;;6.68;3.53;;;;;;;19.11;55.97;100567.28;5060755;28;20023;-62
2022/10/15 04:53:49;;;;;;;5.53;3.45;;;;;;;19.05;55.98;100549.34;5060022;28;20033;-63
2022/10/15 04:56:19;;;;;;;5.00;3.22;;;;;;;19.05;55.81;100553.78;5060930;28;20024;-65
2022/10/15 04:58:45;;;;;;;6.00;3.83;;;;;;;19.12;55.82;100557.53;5060688;28;20453;-66
2022/10/15 05:01:14;;;;;;;5.68;3.65;;;;;;;19.11;55.88;100554.06;5060687;28;20137;-63
2022/10/15 05:03:41;;;;;;;5.47;3.50;;;;;;;19.11;55.76;100562.00;5060919;28;20029;-66
2022/10/15 05:06:12;;;;;;;5.40;3.33;;;;;;;19.12;55.97;100565.47;5060779;28;20029;-63
2022/10/15 05:08:40;;;;;;;5.25;3.50;;;;;;;19.05;55.81;100553.78;5061148;28;20029;-64
2022/10/15 05:11:08;;;;;;;5.95;3.72;;;;;;;19.05;55.74;100559.91;5060691;28;20067;-63
2022/10/15 05:13:34;;;;;;;5.18;3.45;;;;;;;19.03;55.83;100557.41;5060925;28;20067;-63
2022/10/15 05:16:12;;;;;;;5.95;3.83;;;;;;;19.10;55.90;100568.25;5060892;28;20107;-62
2022/10/15 05:18:38;;;;;;;5.20;3.47;;;;;;;19.03;55.80;100560.03;5060998;28;20106;-64
2022/10/15 05:21:04;;;;;;;5.40;3.50;;;;;;;19.10;55.85;100565.59;5061929;28;20039;-64
2022/10/15 05:23:30;;;;;;;4.90;3.45;;;;;;;19.12;56.02;100570.75;5065035;28;20081;-64
2022/10/15 05:25:59;;;;;;;6.55;3.78;;;;;;;18.83;55.70;100521.34;5064651;28;20029;-64
2022/10/15 05:28:24;;;;;;;6.63;3.55;;;;;;;19.05;56.05;100561.72;5062909;28;20372;-63
2022/10/15 05:30:49;;;;;;;5.88;3.50;;;;;;;19.10;55.94;100570.88;5064528;28;20032;-64
2022/10/15 05:33:14;;;;;;;4.60;3.07;;;;;;;19.11;55.94;100572.56;5064136;28;20040;-63
2022/10/15 05:35:40;;;;;;;6.43;3.10;;;;;;;19.06;56.00;100563.38;5064888;28;20021;-66
2022/10/15 05:38:05;;;;;;;5.00;3.10;;;;;;;19.06;55.62;100556.31;5064299;28;20262;-64
2022/10/15 05:40:30;;;;;;;5.23;2.90;;;;;;;19.08;55.78;100558.81;5064467;28;20293;-66
2022/10/15 05:42:55;;;;;;;5.72;3.25;;;;;;;19.06;55.57;100555.44;5064193;28;20737;-65
2022/10/15 05:45:21;;;;;;;4.53;3.00;;;;;;;19.12;55.46;100563.69;5064467;28;20059;-66
2022/10/15 05:47:46;;;;;;;5.00;2.85;;;;;;;19.09;55.54;100560.44;5063861;28;20382;-64
2022/10/15 05:50:11;;;;;;;4.82;3.13;;;;;;;19.16;55.73;100554.47;5064601;28;20028;-65
2022/10/15 05:52:37;;;;;;;5.23;3.23;;;;;;;19.15;55.30;100547.56;5064137;28;20421;-63
2022/10/15 05:55:02;;;;;;;6.32;3.60;;;;;;;19.19;55.33;100548.09;5064171;28;20259;-65
2022/10/15 05:57:27;;;;;;;5.05;3.70;;;;;;;19.22;55.96;100550.47;5064128;28;20028;-63
2022/10/15 05:59:53;;;;;;;5.90;3.43;;;;;;;19.14;55.54;100543.22;5064240;28;20047;-67
2022/10/15 06:02:18;;;;;;;4.63;3.03;;;;;;;19.15;55.64;100546.69;5063572;28;20264;-65
2022/10/15 06:04:43;;;;;;;4.83;3.03;;;;;;;19.18;55.65;100549.06;5064273;28;20295;-65
2022/10/15 06:07:09;;;;;;;5.90;3.20;;;;;;;19.18;55.60;100549.91;5063983;28;20264;-65
2022/10/15 06:09:34;;;;;;;5.18;2.85;;;;;;;19.18;55.42;100549.91;5064065;28;20316;-65
2022/10/15 06:12:00;;;;;;;7.10;3.55;;;;;;;19.20;55.27;100550.59;5063373;28;20040;-65
2022/10/15 06:14:25;;;;;;;5.10;3.50;;;;;;;19.25;55.55;100558.13;5063581;28;20105;-64
2022/10/15 06:16:53;;;;;;;5.68;3.60;;;;;;;19.22;55.60;100547.81;5063184;28;20025;-64
2022/10/15 06:19:19;;;;;;;6.05;3.67;;;;;;;19.25;55.60;100559.91;5063093;28;20067;-65
2022/10/15 06:21:44;;;;;;;4.70;3.08;;;;;;;19.29;55.81;100566.59;5063722;28;20395;-68
2022/10/15 06:24:09;;;;;;;4.37;2.87;;;;;;;19.26;55.48;100558.94;5063610;28;20032;-64
2022/10/15 06:26:35;;;;;;;5.15;3.08;;;;;;;19.23;55.67;100551.28;5063676;28;20605;-64
2022/10/15 06:29:00;;;;;;;4.80;3.00;;;;;;;19.24;55.63;100551.16;5063143;28;20081;-65
2022/10/15 06:31:25;;;;;;;5.40;3.53;;;;;;;19.18;55.83;100547.28;5063019;28;20307;-66
2022/10/15 06:33:50;;;;;;;6.73;3.70;;;;;;;19.30;55.79;100561.16;5062138;28;20720;-64
2022/10/15 06:36:16;;;;;;;5.87;3.20;;;;;;;19.28;55.82;100551.69;5063729;28;20356;-63
2022/10/15 06:38:43;;;;;;;6.35;3.55;;;;;;;19.28;56.15;100551.69;5063253;28;20269;-63
2022/10/15 06:41:08;;;;;;;4.85;3.20;;;;;;;19.35;55.89;100560.75;5062866;28;20429;-63
2022/10/15 06:43:34;;;;;;;6.72;3.38;;;;;;;19.26;55.98;100545.72;5063212;28;20064;-65
2022/10/15 06:46:00;;;;;;;5.65;3.85;;;;;;;19.38;56.12;100565.75;5063150;28;20380;-64
2022/10/15 06:48:26;;;;;;;7.57;3.63;;;;;;;19.35;55.89;100548.38;5063162;28;20384;-67
2022/10/15 06:50:51;;;;;;;6.65;3.58;;;;;;;19.34;55.97;100548.50;5062869;28;20036;-63
2022/10/15 06:53:16;;;;;;;5.40;3.28;;;;;;;19.39;55.87;100562.13;5063512;28;20367;-66
2022/10/15 06:55:42;;;;;;;5.75;3.47;;;;;;;19.43;56.11;100565.34;5062984;28;20039;-62
2022/10/15 06:58:07;;;;;;;6.43;3.35;;;;;;;19.38;55.97;100544.63;5061551;28;20032;-63
2022/10/15 07:00:33;;;;;;;6.82;3.90;;;;;;;19.35;56.13;100540.44;5062569;28;20040;-64
2022/10/15 07:03:03;;;;;;;6.05;3.60;;;;;;;19.39;55.97;100544.50;5062901;28;20575;-64
2022/10/15 07:05:28;;;;;;;6.75;3.70;;;;;;;19.38;56.31;100545.44;5062893;28;20522;-65
2022/10/15 07:07:55;;;;;;;5.40;3.38;;;;;;;19.44;56.12;100553.78;5062839;28;20107;-62
2022/10/15 07:10:21;;;;;;;6.30;3.25;;;;;;;19.42;56.06;100556.56;5062859;28;20029;-65
2022/10/15 07:12:46;;;;;;;4.90;3.33;;;;;;;19.50;56.21;100571.72;5062461;28;20075;-63
2022/10/15 07:15:12;;;;;;;6.93;3.40;;;;;;;19.49;56.09;100578.00;5062756;28;20131;-63
2022/10/15 07:17:38;;;;;;;7.15;3.17;;;;;;;19.51;56.23;100587.44;5062383;28;20048;-64
2022/10/15 07:20:04;;;;;;;6.43;3.55;;;;;;;19.44;56.18;100564.34;5062560;28;20051;-63
2022/10/15 07:22:29;;;;;;;5.10;3.30;;;;;;;19.46;55.91;100562.44;5062456;28;20067;-64
2022/10/15 07:24:54;;;;;;;6.40;3.63;;;;;;;19.51;55.88;100558.38;5062452;28;20444;-68
2022/10/15 07:27:20;;;;;;;6.93;3.23;;;;;;;19.46;56.30;100536.00;5062927;28;20260;-67
2022/10/15 07:29:45;;;;;;;5.28;3.28;;;;;;;19.53;56.13;100540.56;5062165;28;20338;-66
2022/10/15 07:32:11;;;;;;;6.25;3.15;;;;;;;19.46;55.91;100531.53;5062252;28;20025;-66
2022/10/15 07:34:36;;;;;;;4.83;3.43;;;;;;;19.53;56.10;100534.44;5062291;28;20082;-65
2022/10/15 07:37:01;;;;;;;5.33;3.20;;;;;;;19.47;56.02;100521.78;5062896;28;20269;-67
2022/10/15 07:39:27;;;;;;;5.13;3.37;;;;;;;19.48;56.18;100521.66;5062263;28;20265;-69
2022/10/15 07:41:52;;;;;;;5.13;3.30;;;;;;;19.55;56.05;100529.84;5060440;28;20890;-67
2022/10/15 07:44:17;;;;;;;8.32;3.53;;;;;;;19.49;56.23;100528.63;5061759;28;20039;-67
2022/10/15 07:46:42;;;;;;;7.30;3.42;;;;;;;19.52;56.04;100533.63;5062066;28;20040;-67
2022/10/15 07:49:09;;;;;;;7.27;3.43;;;;;;;19.48;56.22;100519.00;5061924;28;20021;-66
2022/10/15 07:51:34;;;;;;;7.25;3.53;;;;;;;19.54;56.11;100518.44;5062214;28;20285;-68
2022/10/15 07:53:59;;;;;;;5.10;3.03;;;;;;;19.49;55.99;100515.41;5061392;28;20039;-64
2022/10/15 07:56:26;;;;;;;4.60;2.90;;;;;;;19.54;56.07;100515.81;5056895;28;20344;-68
2022/10/15 07:58:52;;;;;;;5.20;2.90;;;;;;;19.56;56.16;100521.78;5056716;28;20273;-68
2022/10/15 08:01:24;;;;;;;4.97;2.97;;;;;;;19.56;56.04;100508.56;5055735;28;20021;-71
2022/10/15 08:03:52;;;;;;;4.60;2.88;;;;;;;19.55;56.16;100520.13;5057586;28;20311;-74
2022/10/15 08:06:18;;;;;;;6.28;3.10;;;;;;;19.53;56.32;100516.75;5054425;28;20889;-70
2022/10/15 08:08:43;;;;;;;5.38;3.30;;;;;;;19.49;56.27;100504.81;5060260;28;20028;-71
2022/10/15 08:11:14;;;;;;;6.35;3.38;;;;;;;19.55;56.25;100506.91;5059759;28;20082;-75
2022/10/15 08:13:41;;;;;;;5.50;3.10;;;;;;;19.61;56.38;100508.13;5055958;28;20027;-73
2022/10/15 08:16:13;;;;;;;9.05;3.03;;;;;;;19.65;55.84;100498.13;5055009;28;20029;-71
2022/10/15 08:18:39;;;;;;;6.30;2.80;;;;;;;19.66;56.18;100494.50;5054209;28;20028;-77
2022/10/15 08:21:13;;;;;;;5.55;2.97;;;;;;;19.73;55.90;100504.34;5053969;28;20036;-72
2022/10/15 08:23:39;;;;;;;6.00;2.95;;;;;;;19.75;56.19;100501.56;5055103;28;20025;-72
2022/10/15 08:26:05;;;;;;;6.22;2.97;;;;;;;19.82;55.65;100509.78;5056309;28;20039;-71
2022/10/15 08:28:33;;;;;;;4.60;2.60;;;;;;;19.88;55.85;100511.84;5055362;28;20040;-71
2022/10/15 08:31:00;;;;;;;5.45;2.70;;;;;;;19.90;55.80;100516.03;5055159;28;20582;-71
2022/10/15 08:33:27;;;;;;;5.93;2.92;;;;;;;19.84;55.75;100502.56;5055575;28;20021;-70
2022/10/15 08:35:53;;;;;;;4.82;2.75;;;;;;;19.91;55.52;100508.94;5057721;28;20034;-75
2022/10/15 08:38:18;;;;;;;6.05;2.63;;;;;;;19.93;55.77;100507.81;5055539;28;20454;-72
2022/10/15 08:40:56;;;;;;;4.00;2.17;;;;;;;19.90;55.57;100489.59;5058616;28;20057;-74
2022/10/15 08:43:28;;;;;;;6.22;2.38;;;;;;;19.94;55.92;100479.53;5060640;28;20537;-74
2022/10/15 08:45:58;;;;;;;6.72;2.75;;;;;;;19.98;55.40;100480.94;5060693;28;20028;-74
2022/10/15 08:48:31;;;;;;;3.85;2.20;;;;;;;19.97;55.53;100478.44;5060753;28;20469;-72
2022/10/15 08:51:03;;;;;;;4.45;2.30;;;;;;;20.01;55.38;100479.78;5060503;28;20078;-71
2022/10/15 08:53:37;;;;;;;4.93;2.20;;;;;;;20.07;55.42;100481.84;5060466;28;20028;-72
2022/10/15 08:56:11;;;;;;;5.38;2.33;;;;;;;20.07;55.44;100482.69;5060108;28;20528;-72
2022/10/15 08:58:49;;;;;;;4.50;2.42;;;;;;;20.14;55.05;100476.81;5060415;28;20039;-71
2022/10/15 09:01:49;;;;;;;4.10;2.08;;;;;;;20.14;55.33;100458.28;5060433;28;20056;-74
2022/10/15 09:04:30;;;;;;;7.15;2.92;;;;;;;20.18;55.37;100462.31;5058762;28;20036;-73
2022/10/15 09:07:08;;;;;;;8.30;2.25;;;;;;;20.18;55.42;100455.22;5060672;28;20024;-72
2022/10/15 09:09:44;;;;;;;4.63;2.10;;;;;;;20.12;55.29;100439.91;5060440;28;20043;-72
2022/10/15 09:12:34;;;;;;;4.82;2.10;;;;;;;20.07;55.17;100432.41;5060256;28;20036;-70
2022/10/15 09:15:01;;;;;;;6.47;2.28;;;;;;;20.22;55.32;100450.44;5060260;28;20368;-74
2022/10/15 09:17:30;;;;;;;4.68;1.90;;;;;;;20.22;55.21;100453.94;5060554;28;20503;-68
2022/10/15 09:19:57;;;;;;;3.63;1.90;;;;;;;20.15;54.92;100447.56;5060459;28;20028;-67
2022/10/15 09:22:25;;;;;;;4.88;2.03;;;;;;;20.21;55.43;100452.25;5060100;28;20033;-73
2022/10/15 09:24:51;;;;;;;3.78;1.98;;;;;;;20.19;55.35;100446.28;5060206;28;20479;-73
2022/10/15 09:27:31;;;;;;;4.40;1.80;;;;;;;20.20;55.30;100447.13;5060620;28;20059;-74
2022/10/15 09:30:12;;;;;;;6.28;1.88;;;;;;;20.26;55.36;100467.69;5060618;28;20056;-74
2022/10/15 09:32:54;;;;;;;4.25;1.70;;;;;;;20.27;55.46;100459.63;5059995;28;20036;-73
2022/10/15 09:35:25;;;;;;;5.43;1.85;;;;;;;20.20;55.48;100441.81;5060569;28;20348;-73
2022/10/15 09:38:24;;;;;;;4.32;2.05;;;;;;;20.29;55.35;100457.66;5060214;28;20025;-72
2022/10/15 09:41:15;;;;;;;3.22;1.70;;;;;;;20.21;55.20;100433.75;5059809;28;20029;-71
2022/10/15 09:43:44;;;;;;;6.13;1.60;;;;;;;20.23;55.17;100437.06;5060155;28;20079;-70
2022/10/15 09:46:10;;;;;;;4.72;1.90;;;;;;;20.25;55.57;100440.41;5059790;28;20050;-70
2022/10/15 09:48:44;;;;;;;3.40;1.65;;;;;;;20.26;55.36;100435.94;5059862;28;20836;-68
2022/10/15 09:51:33;;;;;;;4.13;2.00;;;;;;;20.34;55.60;100437.84;5059918;28;20486;-73
2022/10/15 09:54:20;;;;;;;5.57;1.80;;;;;;;20.23;55.63;100418.53;5060206;28;20032;-73
2022/10/15 09:56:51;;;;;;;4.82;1.60;;;;;;;20.26;55.21;100422.72;5059921;28;20111;-66
2022/10/15 09:59:17;;;;;;;3.72;1.73;;;;;;;20.34;55.64;100437.84;5060149;28;20113;-67
2022/10/15 10:02:04;;;;;;;3.05;1.52;;;;;;;20.29;55.40;100431.19;5059467;28;20218;-69
2022/10/15 10:04:31;;;;;;;4.80;1.60;;;;;;;20.26;55.45;100420.06;5059123;28;20144;-62
2022/10/15 10:07:00;;;;;;;4.57;1.70;;;;;;;20.22;55.15;100413.41;5060316;28;20028;-62
2022/10/15 10:09:31;;;;;;;5.07;1.50;;;;;;;20.27;55.29;100424.38;5064039;28;20137;-61
2022/10/15 10:12:02;;;;;;;4.00;1.80;;;;;;;20.20;55.71;100423.31;5063976;28;20461;-63
2022/10/15 10:14:34;;;;;;;3.42;1.70;;;;;;;20.16;55.89;100416.66;5063803;28;20688;-63
2022/10/15 10:17:27;;;;;;;4.32;1.42;;;;;;;20.26;55.94;100420.06;5061549;28;20032;-73
2022/10/15 10:20:07;;;;;;;2.60;1.40;;;;;;;20.29;55.96;100427.72;5061989;28;20059;-71
2022/10/15 10:22:44;;;;;;;4.35;1.60;;;;;;;20.30;55.91;100419.63;5060999;28;20033;-73
2022/10/15 10:25:22;;;;;;;5.45;1.45;;;;;;;20.29;56.31;100412.66;5062975;28;20056;-74
2022/10/15 10:27:47;;;;;;;5.28;1.48;;;;;;;20.22;55.94;100411.59;5062835;28;20032;-67
2022/10/15 10:30:13;;;;;;;3.97;1.80;;;;;;;20.21;56.23;100424.97;5062914;28;20047;-70
2022/10/15 10:32:39;;;;;;;4.85;1.48;;;;;;;20.18;56.27;100422.63;5062347;28;20035;-66
2022/10/15 10:35:14;;;;;;;4.15;1.50;;;;;;;20.25;56.60;100423.69;5062849;28;20161;-67
2022/10/15 10:37:43;;;;;;;4.63;1.60;;;;;;;20.17;56.16;100413.03;5062352;28;20016;-66
2022/10/15 10:40:28;;;;;;;1.88;1.20;;;;;;;20.17;56.14;100432.41;5062587;28;20060;-65
2022/10/15 10:43:14;;;;;;;6.22;1.52;;;;;;;20.24;56.50;100438.75;5062964;28;20480;-66
2022/10/15 10:45:55;;;;;;;3.92;1.50;;;;;;;20.18;56.26;100422.63;5062574;28;20025;-66
2022/10/15 10:48:39;;;;;;;8.88;1.83;;;;;;;20.30;56.36;100432.84;5062707;28;20021;-76
2022/10/15 10:51:19;;;;;;;3.67;1.50;;;;;;;20.33;56.15;100436.19;5062275;28;20113;-74
2022/10/15 10:53:59;;;;;;;3.90;1.23;;;;;;;20.34;56.33;100433.38;5062437;28;20111;-72
2022/10/15 10:56:46;;;;;;;2.70;1.10;;;;;;;20.34;56.23;100436.03;5062568;28;20024;-75
2022/10/15 10:59:26;;;;;;;4.55;1.30;;;;;;;20.27;55.91;100417.28;5062553;28;20468;-77
2022/10/15 11:01:52;;;;;;;4.35;1.40;;;;;;;20.34;56.35;100428.09;5061930;28;20055;-76
2022/10/15 11:04:26;;;;;;;5.03;1.60;;;;;;;20.25;56.30;100399.88;5062162;28;20033;-77
2022/10/15 11:06:59;;;;;;;3.60;1.60;;;;;;;20.35;56.39;100421.81;5062610;28;20032;-74
2022/10/15 11:09:27;;;;;;;3.53;1.20;;;;;;;20.37;56.59;100411.09;5063951;28;20461;-79
2022/10/15 11:12:07;;;;;;;4.30;1.20;;;;;;;20.39;56.79;100414.41;5062529;28;20078;-78
2022/10/15 11:14:43;;;;;;;2.92;1.38;;;;;;;20.30;56.82;100400.28;5063194;28;20353;-75
2022/10/15 11:17:23;;;;;;;5.35;1.40;;;;;;;20.39;56.98;100412.59;5062875;28;20037;-75
2022/10/15 11:20:14;;;;;;;2.67;1.20;;;;;;;20.29;56.82;100403.91;5061078;28;20126;-70
2022/10/15 11:23:13;;;;;;;3.85;1.38;;;;;;;20.31;56.69;100412.50;5061938;28;20051;-71
2022/10/15 11:25:51;;;;;;;4.65;1.40;;;;;;;20.28;56.55;100403.06;5054135;28;20079;-76
2022/10/15 11:28:46;;;;;;;3.30;1.35;;;;;;;20.35;56.88;100403.31;5060292;28;20472;-73
2022/10/15 11:31:25;;;;;;;3.83;1.50;;;;;;;20.25;56.94;100398.09;5061876;28;20515;-74
2022/10/15 11:34:23;;;;;;;5.05;1.30;;;;;;;20.38;57.00;100412.78;5058618;28;20048;-77
2022/10/15 11:37:14;;;;;;;2.28;1.27;;;;;;;20.34;57.05;100400.81;5056149;28;20089;-74